createdAt,value
2023-05-22T00:00:12.323Z,0.00
2023-05-22T00:01:12.327Z,0.00
2023-05-22T00:02:12.421Z,0.00
2023-05-22T00:03:12.453Z,0.00
2023-05-22T00:04:12.337Z,0.00
2023-05-22T00:05:12.202Z,0.00
2023-05-22T00:06:12.337Z,0.00
2023-05-22T00:07:12.365Z,0.00
2023-05-22T00:08:12.267Z,0.00
2023-05-22T00:09:12.284Z,0.00
2023-05-22T00:10:12.316Z,0.00
2023-05-22T00:11:12.338Z,0.00
2023-05-22T00:12:12.274Z,0.00
2023-05-22T00:13:12.210Z,0.00
2023-05-22T00:14:12.223Z,0.00
2023-05-22T00:15:12.154Z,0.00
2023-05-22T00:16:12.275Z,0.00
2023-05-22T00:17:12.303Z,0.00
2023-05-22T00:18:12.032Z,0.00
2023-05-22T00:19:12.262Z,0.00
2023-05-22T00:20:11.988Z,0.00
2023-05-22T00:21:12.191Z,0.00
2023-05-22T00:22:12.232Z,0.00
2023-05-22T00:23:13.828Z,0.00
2023-05-22T00:24:12.057Z,0.00
2023-05-22T00:25:11.977Z,0.00
2023-05-22T00:26:11.927Z,0.00
2023-05-22T00:27:12.046Z,0.00
2023-05-22T00:28:12.064Z,0.00
2023-05-22T00:29:12.127Z,0.00
2023-05-22T00:30:12.067Z,0.00
2023-05-22T00:31:12.023Z,0.00
2023-05-22T00:32:11.984Z,0.00
2023-05-22T00:33:11.864Z,0.00
2023-05-22T00:34:12.144Z,0.00
2023-05-22T00:35:11.956Z,0.00
2023-05-22T00:36:11.987Z,0.00
2023-05-22T00:37:12.006Z,0.00
2023-05-22T00:38:12.126Z,0.00
2023-05-22T00:39:11.974Z,0.00
2023-05-22T00:40:11.998Z,0.00
2023-05-22T00:41:11.985Z,0.00
2023-05-22T00:42:11.987Z,0.00
2023-05-22T00:43:11.948Z,0.00
2023-05-22T00:44:12.030Z,0.00
2023-05-22T00:45:11.927Z,0.00
2023-05-22T00:46:11.932Z,0.00
2023-05-22T00:47:11.916Z,0.00
2023-05-22T00:48:11.697Z,0.00
2023-05-22T00:49:11.965Z,0.00
2023-05-22T00:50:11.875Z,0.00
2023-05-22T00:51:11.874Z,0.00
2023-05-22T00:52:11.861Z,0.00
2023-05-22T00:53:11.864Z,0.00
2023-05-22T00:54:11.943Z,0.00
2023-05-22T00:55:11.949Z,0.00
2023-05-22T00:56:11.730Z,0.00
2023-05-22T00:57:11.748Z,0.00
2023-05-22T00:58:11.711Z,0.00
2023-05-22T00:59:11.808Z,0.00
2023-05-22T01:00:11.688Z,0.00
2023-05-22T01:01:11.824Z,0.00
2023-05-22T01:02:11.789Z,0.00
2023-05-22T01:03:11.807Z,0.00
2023-05-22T01:04:11.694Z,0.00
2023-05-22T01:05:11.707Z,0.00
2023-05-22T01:06:11.733Z,0.00
2023-05-22T01:07:11.667Z,0.00
2023-05-22T01:08:11.725Z,0.00
2023-05-22T01:09:11.631Z,0.00
2023-05-22T01:10:11.609Z,0.00
2023-05-22T01:11:11.476Z,0.00
2023-05-22T01:12:11.661Z,0.00
2023-05-22T01:13:11.577Z,0.00
2023-05-22T01:14:11.575Z,0.00
2023-05-22T01:15:11.384Z,0.00
2023-05-22T01:16:11.527Z,0.00
2023-05-22T01:17:11.634Z,0.00
2023-05-22T01:18:11.615Z,0.00
2023-05-22T01:19:11.581Z,0.00
2023-05-22T01:20:11.470Z,0.00
2023-05-22T01:21:11.471Z,0.00
2023-05-22T01:22:11.542Z,0.00
2023-05-22T01:23:11.585Z,0.00
2023-05-22T01:24:11.504Z,0.00
2023-05-22T01:25:11.445Z,0.00
2023-05-22T01:26:11.466Z,0.00
2023-05-22T01:27:11.551Z,0.00
2023-05-22T01:28:11.425Z,0.00
2023-05-22T01:29:11.439Z,0.00
2023-05-22T01:30:11.368Z,0.00
2023-05-22T01:31:11.529Z,0.00
2023-05-22T01:32:11.409Z,0.00
2023-05-22T01:33:11.484Z,0.00
2023-05-22T01:34:11.370Z,0.00
2023-05-22T01:35:11.300Z,0.00
2023-05-22T01:36:11.316Z,0.00
2023-05-22T01:37:11.329Z,0.00
2023-05-22T01:38:11.400Z,0.00
2023-05-22T01:39:11.272Z,0.00
2023-05-22T01:40:11.303Z,0.00
2023-05-22T01:41:11.281Z,0.00
2023-05-22T01:42:11.265Z,0.00
2023-05-22T01:43:11.255Z,0.00
2023-05-22T01:44:11.313Z,0.00
2023-05-22T01:45:11.230Z,0.00
2023-05-22T01:46:11.381Z,0.00
2023-05-22T01:47:11.234Z,0.00
2023-05-22T01:48:11.223Z,0.00
2023-05-22T01:49:11.220Z,0.00
2023-05-22T01:50:11.208Z,0.00
2023-05-22T01:51:11.275Z,0.00
2023-05-22T01:52:11.193Z,0.00
2023-05-22T01:53:11.174Z,0.00
2023-05-22T01:54:11.173Z,0.00
2023-05-22T01:55:11.254Z,0.00
2023-05-22T01:56:11.093Z,0.00
2023-05-22T01:57:11.091Z,0.00
2023-05-22T01:58:11.101Z,0.00
2023-05-22T01:59:11.107Z,0.00
2023-05-22T02:00:10.978Z,0.00
2023-05-22T02:01:11.147Z,0.00
2023-05-22T02:02:11.092Z,0.00
2023-05-22T02:03:11.132Z,0.00
2023-05-22T02:04:11.082Z,0.00
2023-05-22T02:05:11.006Z,0.00
2023-05-22T02:06:11.094Z,0.00
2023-05-22T02:07:12.234Z,0.00
2023-05-22T02:08:11.095Z,0.00
2023-05-22T02:09:11.002Z,0.00
2023-05-22T02:10:11.015Z,0.00
2023-05-22T02:11:11.166Z,0.00
2023-05-22T02:12:11.029Z,0.00
2023-05-22T02:13:10.976Z,0.00
2023-05-22T02:14:11.001Z,0.00
2023-05-22T02:15:10.895Z,0.00
2023-05-22T02:16:11.058Z,0.00
2023-05-22T02:17:10.917Z,0.00
2023-05-22T02:18:11.077Z,0.00
2023-05-22T02:19:10.933Z,0.00
2023-05-22T02:20:10.885Z,0.00
2023-05-22T02:21:10.894Z,0.00
2023-05-22T02:22:10.902Z,0.00
2023-05-22T02:23:10.886Z,0.00
2023-05-22T02:24:10.889Z,0.00
2023-05-22T02:25:10.832Z,0.00
2023-05-22T02:26:10.921Z,0.00
2023-05-22T02:27:10.838Z,0.00
2023-05-22T02:28:10.836Z,0.00
2023-05-22T02:29:10.720Z,0.00
2023-05-22T02:30:10.817Z,0.00
2023-05-22T02:31:10.889Z,0.00
2023-05-22T02:32:10.774Z,0.00
2023-05-22T02:33:10.882Z,0.00
2023-05-22T02:34:10.715Z,0.00
2023-05-22T02:35:10.762Z,0.00
2023-05-22T02:36:10.715Z,0.00
2023-05-22T02:37:10.796Z,0.00
2023-05-22T02:38:10.664Z,0.00
2023-05-22T02:39:10.674Z,0.00
2023-05-22T02:40:10.680Z,0.00
2023-05-22T02:41:10.640Z,0.00
2023-05-22T02:42:10.570Z,0.00
2023-05-22T02:43:10.754Z,0.00
2023-05-22T02:44:10.691Z,0.00
2023-05-22T02:45:10.639Z,0.00
2023-05-22T02:46:10.649Z,0.00
2023-05-22T02:47:10.657Z,0.00
2023-05-22T02:48:10.744Z,0.00
2023-05-22T02:49:10.414Z,0.00
2023-05-22T02:50:10.584Z,0.00
2023-05-22T02:51:10.486Z,1.00
2023-05-22T02:52:10.490Z,1.00
2023-05-22T02:53:10.503Z,1.00
2023-05-22T02:54:10.569Z,1.00
2023-05-22T02:55:10.384Z,1.00
2023-05-22T02:56:10.483Z,2.00
2023-05-22T02:57:10.469Z,2.00
2023-05-22T02:58:10.456Z,2.00
2023-05-22T02:59:10.498Z,2.00
2023-05-22T03:00:10.325Z,3.00
2023-05-22T03:01:10.391Z,3.00
2023-05-22T03:02:10.427Z,4.00
2023-05-22T03:03:10.446Z,4.00
2023-05-22T03:04:10.469Z,8.00
2023-05-22T03:05:10.469Z,6.00
2023-05-22T03:06:10.350Z,7.00
2023-05-22T03:07:10.355Z,10.00
2023-05-22T03:08:10.348Z,11.00
2023-05-22T03:09:10.424Z,9.00
2023-05-22T03:10:10.411Z,7.00
2023-05-22T03:11:10.263Z,15.00
2023-05-22T03:12:10.187Z,15.00
2023-05-22T03:13:10.281Z,17.00
2023-05-22T03:14:10.258Z,18.00
2023-05-22T03:15:10.345Z,19.00
2023-05-22T03:16:10.264Z,22.00
2023-05-22T03:17:10.296Z,24.00
2023-05-22T03:18:10.259Z,26.00
2023-05-22T03:19:10.254Z,28.00
2023-05-22T03:20:10.225Z,31.00
2023-05-22T03:21:10.263Z,33.00
2023-05-22T03:22:10.192Z,37.00
2023-05-22T03:23:10.124Z,40.00
2023-05-22T03:24:10.147Z,45.00
2023-05-22T03:25:10.246Z,45.00
2023-05-22T03:26:10.173Z,51.00
2023-05-22T03:27:10.100Z,54.00
2023-05-22T03:28:10.210Z,58.00
2023-05-22T03:29:10.217Z,61.00
2023-05-22T03:30:10.190Z,64.00
2023-05-22T03:31:10.177Z,72.00
2023-05-22T03:32:10.098Z,80.00
2023-05-22T03:33:10.502Z,84.00
2023-05-22T03:34:10.117Z,89.00
2023-05-22T03:35:10.152Z,96.00
2023-05-22T03:36:09.912Z,100.00
2023-05-22T03:37:09.912Z,106.00
2023-05-22T03:38:09.979Z,109.00
2023-05-22T03:39:09.986Z,112.00
2023-05-22T03:40:09.971Z,121.00
2023-05-22T03:41:09.966Z,125.00
2023-05-22T03:42:10.030Z,132.00
2023-05-22T03:43:09.944Z,137.00
2023-05-22T03:44:09.929Z,145.00
2023-05-22T03:45:09.883Z,149.00
2023-05-22T03:46:09.918Z,150.00
2023-05-22T03:47:09.894Z,154.00
2023-05-22T03:48:10.051Z,168.00
2023-05-22T03:49:09.919Z,176.00
2023-05-22T03:50:09.932Z,184.00
2023-05-22T03:51:09.845Z,196.00
2023-05-22T03:52:09.872Z,206.00
2023-05-22T03:53:09.957Z,217.00
2023-05-22T03:54:09.880Z,221.00
2023-05-22T03:55:09.813Z,228.00
2023-05-22T03:56:09.832Z,236.00
2023-05-22T03:57:09.732Z,243.00
2023-05-22T03:58:09.930Z,261.00
2023-05-22T03:59:09.802Z,274.00
2023-05-22T04:00:09.877Z,285.00
2023-05-22T04:01:09.778Z,301.00
2023-05-22T04:02:09.754Z,316.00
2023-05-22T04:03:09.806Z,335.00
2023-05-22T04:04:09.844Z,348.00
2023-05-22T04:05:09.793Z,367.00
2023-05-22T04:06:09.752Z,383.00
2023-05-22T04:07:09.720Z,399.00
2023-05-22T04:08:09.694Z,420.00
2023-05-22T04:09:09.700Z,440.00
2023-05-22T04:10:09.781Z,463.00
2023-05-22T04:11:09.697Z,488.00
2023-05-22T04:12:09.491Z,508.00
2023-05-22T04:13:09.663Z,528.00
2023-05-22T04:14:09.688Z,546.00
2023-05-22T04:15:09.706Z,573.00
2023-05-22T04:16:09.721Z,592.00
2023-05-22T04:17:09.628Z,613.00
2023-05-22T04:18:09.502Z,627.00
2023-05-22T04:19:09.554Z,645.00
2023-05-22T04:20:09.597Z,658.00
2023-05-22T04:21:09.608Z,680.00
2023-05-22T04:22:09.388Z,686.00
2023-05-22T04:23:09.512Z,694.00
2023-05-22T04:24:09.418Z,705.00
2023-05-22T04:25:09.528Z,713.00
2023-05-22T04:26:09.380Z,729.00
2023-05-22T04:27:09.420Z,743.00
2023-05-22T04:28:09.527Z,766.00
2023-05-22T04:29:09.317Z,793.00
2023-05-22T04:30:09.336Z,806.00
2023-05-22T04:31:09.367Z,822.00
2023-05-22T04:32:09.417Z,835.00
2023-05-22T04:33:09.554Z,859.00
2023-05-22T04:34:09.415Z,878.00
2023-05-22T04:35:09.408Z,907.00
2023-05-22T04:36:11.029Z,936.00
2023-05-22T04:37:09.501Z,969.00
2023-05-22T04:38:09.489Z,1001.00
2023-05-22T04:39:09.310Z,1028.00
2023-05-22T04:40:09.401Z,1066.00
2023-05-22T04:41:09.397Z,1111.00
2023-05-22T04:42:09.354Z,1165.00
2023-05-22T04:43:09.295Z,1212.00
2023-05-22T04:44:09.289Z,1260.00
2023-05-22T04:45:09.327Z,1308.00
2023-05-22T04:46:09.414Z,1355.00
2023-05-22T04:47:09.421Z,1399.00
2023-05-22T04:48:09.473Z,1448.00
2023-05-22T04:49:09.312Z,1502.00
2023-05-22T04:50:09.340Z,1551.00
2023-05-22T04:51:09.227Z,1601.00
2023-05-22T04:52:09.256Z,1632.00
2023-05-22T04:53:09.103Z,1631.00
2023-05-22T04:54:09.157Z,1593.00
2023-05-22T04:55:09.192Z,1724.00
2023-05-22T04:56:09.245Z,1606.00
2023-05-22T04:57:09.184Z,1757.00
2023-05-22T04:58:09.284Z,1873.00
2023-05-22T04:59:09.635Z,2011.00
2023-05-22T05:00:09.083Z,2017.00
2023-05-22T05:01:09.278Z,1919.00
2023-05-22T05:02:09.120Z,1815.00
2023-05-22T05:03:09.151Z,1786.00
2023-05-22T05:04:09.018Z,1831.00
2023-05-22T05:05:09.116Z,1896.00
2023-05-22T05:06:08.978Z,1936.00
2023-05-22T05:07:08.919Z,1970.00
2023-05-22T05:08:09.108Z,2018.00
2023-05-22T05:09:09.059Z,2048.00
2023-05-22T05:10:09.084Z,2087.00
2023-05-22T05:11:09.096Z,2141.00
2023-05-22T05:12:09.105Z,2236.00
2023-05-22T05:13:08.875Z,2366.00
2023-05-22T05:14:08.947Z,2410.00
2023-05-22T05:15:08.842Z,2606.00
2023-05-22T05:16:08.880Z,2795.00
2023-05-22T05:17:09.001Z,2834.00
2023-05-22T05:18:09.051Z,3102.00
2023-05-22T05:19:09.051Z,3039.00
2023-05-22T05:20:09.037Z,3154.00
2023-05-22T05:21:08.967Z,3150.00
2023-05-22T05:22:08.803Z,3108.00
2023-05-22T05:23:08.739Z,3070.00
2023-05-22T05:24:09.024Z,3075.00
2023-05-22T05:25:10.939Z,3026.00
2023-05-22T05:26:09.011Z,3222.00
2023-05-22T05:27:08.878Z,3510.00
2023-05-22T05:28:08.897Z,3228.00
2023-05-22T05:29:08.808Z,3260.00
2023-05-22T05:30:08.834Z,3414.00
2023-05-22T05:31:08.884Z,3928.00
2023-05-22T05:32:08.884Z,3796.00
2023-05-22T05:33:08.805Z,3654.00
2023-05-22T05:34:08.852Z,3289.00
2023-05-22T05:35:08.664Z,3293.00
2023-05-22T05:36:08.819Z,3486.00
2023-05-22T05:37:08.678Z,3527.00
2023-05-22T05:38:08.619Z,3408.00
2023-05-22T05:39:08.582Z,3394.00
2023-05-22T05:40:08.590Z,3440.00
2023-05-22T05:41:08.594Z,3491.00
2023-05-22T05:42:08.535Z,3537.00
2023-05-22T05:43:09.320Z,3544.00
2023-05-22T05:44:08.534Z,3663.00
2023-05-22T05:45:08.526Z,4552.00
2023-05-22T05:46:08.559Z,4467.00
2023-05-22T05:47:08.484Z,4016.00
2023-05-22T05:48:08.524Z,3801.00
2023-05-22T05:49:08.502Z,3749.00
2023-05-22T05:50:08.477Z,3708.00
2023-05-22T05:51:08.541Z,3745.00
2023-05-22T05:52:08.502Z,3554.00
2023-05-22T05:53:08.413Z,3761.00
2023-05-22T05:54:08.406Z,5363.00
2023-05-22T05:55:08.424Z,6665.00
2023-05-22T05:56:08.451Z,5618.00
2023-05-22T05:57:08.431Z,4543.00
2023-05-22T05:58:08.373Z,4174.00
2023-05-22T05:59:08.389Z,3316.00
2023-05-22T06:00:08.416Z,5629.00
2023-05-22T06:01:08.442Z,5651.00
2023-05-22T06:02:08.435Z,5576.00
2023-05-22T06:03:08.610Z,6023.00
2023-05-22T06:04:08.324Z,5709.00
2023-05-22T06:05:08.410Z,4664.00
2023-05-22T06:06:08.368Z,4186.00
2023-05-22T06:07:08.322Z,3948.00
2023-05-22T06:08:08.340Z,4002.00
2023-05-22T06:09:08.294Z,4204.00
2023-05-22T06:10:08.332Z,4297.00
2023-05-22T06:11:08.315Z,4704.00
2023-05-22T06:12:08.231Z,4554.00
2023-05-22T06:13:08.327Z,4339.00
2023-05-22T06:14:08.235Z,4353.00
2023-05-22T06:15:08.393Z,4504.00
2023-05-22T06:16:08.447Z,4926.00
2023-05-22T06:17:08.444Z,4734.00
2023-05-22T06:18:08.358Z,4547.00
2023-05-22T06:19:08.313Z,4684.00
2023-05-22T06:20:08.180Z,5194.00
2023-05-22T06:21:08.223Z,6846.00
2023-05-22T06:22:08.136Z,9417.00
2023-05-22T06:23:08.165Z,7726.00
2023-05-22T06:24:08.125Z,6273.00
2023-05-22T06:25:08.200Z,7041.00
2023-05-22T06:26:08.108Z,5612.00
2023-05-22T06:27:08.086Z,6736.00
2023-05-22T06:28:08.085Z,8407.00
2023-05-22T06:29:08.067Z,13387.00
2023-05-22T06:30:08.108Z,10635.00
2023-05-22T06:31:08.060Z,8707.00
2023-05-22T06:32:08.122Z,11660.00
2023-05-22T06:33:08.178Z,9198.00
2023-05-22T06:34:08.213Z,7134.00
2023-05-22T06:35:07.977Z,5711.00
2023-05-22T06:36:08.009Z,5269.00
2023-05-22T06:37:07.992Z,5031.00
2023-05-22T06:38:07.960Z,4936.00
2023-05-22T06:39:07.943Z,4993.00
2023-05-22T06:40:07.948Z,5036.00
2023-05-22T06:41:08.004Z,5120.00
2023-05-22T06:42:07.965Z,4951.00
2023-05-22T06:43:07.954Z,5040.00
2023-05-22T06:44:07.961Z,4884.00
2023-05-22T06:45:07.917Z,4827.00
2023-05-22T06:46:07.941Z,5143.00
2023-05-22T06:47:07.903Z,5247.00
2023-05-22T06:48:07.924Z,5115.00
2023-05-22T06:49:07.880Z,4953.00
2023-05-22T06:50:07.894Z,4802.00
2023-05-22T06:51:07.842Z,4605.00
2023-05-22T06:52:07.851Z,4496.00
2023-05-22T06:53:07.833Z,4474.00
2023-05-22T06:54:07.857Z,4407.00
2023-05-22T06:55:07.829Z,4299.00
2023-05-22T06:56:07.809Z,4220.00
2023-05-22T06:57:07.781Z,4166.00
2023-05-22T06:58:07.784Z,4076.00
2023-05-22T06:59:07.776Z,3989.00
2023-05-22T07:00:07.777Z,3929.00
2023-05-22T07:01:07.874Z,3922.00
2023-05-22T07:02:07.806Z,3938.00
2023-05-22T07:03:07.803Z,3834.00
2023-05-22T07:04:07.726Z,3704.00
2023-05-22T07:05:07.769Z,3664.00
2023-05-22T07:06:07.828Z,3651.00
2023-05-22T07:07:07.700Z,3631.00
2023-05-22T07:08:07.652Z,3551.00
2023-05-22T07:09:07.714Z,3462.00
2023-05-22T07:10:07.667Z,3442.00
2023-05-22T07:11:07.715Z,3415.00
2023-05-22T07:12:07.725Z,3402.00
2023-05-22T07:13:07.670Z,3568.00
2023-05-22T07:14:07.692Z,3625.00
2023-05-22T07:15:07.625Z,3593.00
2023-05-22T07:16:07.680Z,3520.00
2023-05-22T07:17:07.557Z,3607.00
2023-05-22T07:18:07.612Z,3651.00
2023-05-22T07:19:07.697Z,3617.00
2023-05-22T07:20:07.665Z,3674.00
2023-05-22T07:21:07.679Z,3753.00
2023-05-22T07:22:07.558Z,3838.00
2023-05-22T07:23:07.617Z,3935.00
2023-05-22T07:24:07.549Z,4072.00
2023-05-22T07:25:07.560Z,4127.00
2023-05-22T07:26:07.620Z,4173.00
2023-05-22T07:27:07.678Z,4210.00
2023-05-22T07:28:07.469Z,4269.00
2023-05-22T07:29:07.605Z,4300.00
2023-05-22T07:30:07.709Z,4343.00
2023-05-22T07:31:07.548Z,4352.00
2023-05-22T07:32:07.476Z,4303.00
2023-05-22T07:33:07.604Z,4283.00
2023-05-22T07:34:07.477Z,4257.00
2023-05-22T07:35:07.529Z,4211.00
2023-05-22T07:36:07.441Z,4211.00
2023-05-22T07:37:07.571Z,4194.00
2023-05-22T07:38:07.537Z,4142.00
2023-05-22T07:39:07.483Z,4121.00
2023-05-22T07:40:07.712Z,4195.00
2023-05-22T07:41:07.420Z,4125.00
2023-05-22T07:42:07.458Z,4092.00
2023-05-22T07:43:07.658Z,4058.00
2023-05-22T07:44:07.433Z,4039.00
2023-05-22T07:45:07.472Z,4055.00
2023-05-22T07:46:07.480Z,4080.00
2023-05-22T07:47:07.438Z,4152.00
2023-05-22T07:48:07.420Z,4219.00
2023-05-22T07:49:07.552Z,4334.00
2023-05-22T07:50:07.434Z,4477.00
2023-05-22T07:51:07.400Z,4629.00
2023-05-22T07:52:07.367Z,4769.00
2023-05-22T07:53:07.406Z,4879.00
2023-05-22T07:54:07.353Z,5012.00
2023-05-22T07:55:07.327Z,5233.00
2023-05-22T07:56:07.235Z,5325.00
2023-05-22T07:57:07.311Z,5315.00
2023-05-22T07:58:07.320Z,5455.00
2023-05-22T07:59:07.339Z,5657.00
2023-05-22T08:00:07.287Z,5678.00
2023-05-22T08:01:09.410Z,5672.00
2023-05-22T08:02:07.121Z,5720.00
2023-05-22T08:03:07.223Z,5753.00
2023-05-22T08:04:07.309Z,5770.00
2023-05-22T08:05:07.220Z,5800.00
2023-05-22T08:06:07.062Z,7250.00
2023-05-22T08:07:07.119Z,6941.00
2023-05-22T08:08:07.203Z,6466.00
2023-05-22T08:09:07.103Z,5741.00
2023-05-22T08:10:07.076Z,5747.00
2023-05-22T08:11:07.234Z,5606.00
2023-05-22T08:12:07.500Z,5712.00
2023-05-22T08:13:06.978Z,5571.00
2023-05-22T08:14:06.994Z,5638.00
2023-05-22T08:15:07.066Z,5799.00
2023-05-22T08:16:07.007Z,6574.00
2023-05-22T08:17:07.053Z,9391.00
2023-05-22T08:18:07.003Z,10216.00
2023-05-22T08:19:07.012Z,11636.00
2023-05-22T08:20:07.134Z,9640.00
2023-05-22T08:21:06.955Z,7620.00
2023-05-22T08:22:06.929Z,6624.00
2023-05-22T08:23:07.060Z,6755.00
2023-05-22T08:24:07.049Z,9310.00
2023-05-22T08:25:06.920Z,11067.00
2023-05-22T08:26:06.870Z,9512.00
2023-05-22T08:27:06.938Z,13377.00
2023-05-22T08:28:07.003Z,13010.00
2023-05-22T08:29:06.986Z,12427.00
2023-05-22T08:30:06.972Z,12026.00
2023-05-22T08:31:06.962Z,11635.00
2023-05-22T08:32:06.864Z,10903.00
2023-05-22T08:33:06.841Z,10447.00
2023-05-22T08:34:06.781Z,9936.00
2023-05-22T08:35:06.791Z,9971.00
2023-05-22T08:36:06.825Z,9472.00
2023-05-22T08:37:06.933Z,9517.00
2023-05-22T08:38:06.800Z,8960.00
2023-05-22T08:39:06.794Z,8146.00
2023-05-22T08:40:06.749Z,7962.00
2023-05-22T08:41:06.902Z,7895.00
2023-05-22T08:42:06.723Z,8847.00
2023-05-22T08:43:06.683Z,10343.00
2023-05-22T08:44:06.805Z,9729.00
2023-05-22T08:45:06.764Z,9682.00
2023-05-22T08:46:06.675Z,10056.00
2023-05-22T08:47:06.740Z,10200.00
2023-05-22T08:48:06.732Z,10151.00
2023-05-22T08:49:06.629Z,10103.00
2023-05-22T08:50:06.625Z,9996.00
2023-05-22T08:51:06.666Z,9685.00
2023-05-22T08:52:06.568Z,9913.00
2023-05-22T08:53:06.578Z,9884.00
2023-05-22T08:54:06.556Z,10157.00
2023-05-22T08:55:06.581Z,9809.00
2023-05-22T08:56:06.552Z,9505.00
2023-05-22T08:57:06.554Z,10496.00
2023-05-22T08:58:06.534Z,9765.00
2023-05-22T08:59:06.619Z,9461.00
2023-05-22T09:00:06.576Z,9301.00
2023-05-22T09:01:06.590Z,8603.00
2023-05-22T09:02:07.073Z,7278.00
2023-05-22T09:03:06.564Z,15529.00
2023-05-22T09:04:07.406Z,7449.00
2023-05-22T09:05:06.485Z,9178.00
2023-05-22T09:06:06.448Z,31497.00
2023-05-22T09:07:06.465Z,28464.00
2023-05-22T09:08:18.996Z,70659.00
2023-05-22T09:09:06.459Z,36862.00
2023-05-22T09:10:06.451Z,40132.00
2023-05-22T09:11:06.409Z,31331.00
2023-05-22T09:12:06.433Z,33292.00
2023-05-22T09:13:06.410Z,33781.00
2023-05-22T09:14:06.364Z,33234.00
2023-05-22T09:15:06.351Z,31905.00
2023-05-22T09:16:06.345Z,26972.00
2023-05-22T09:17:06.411Z,29894.00
2023-05-22T09:18:06.467Z,27296.00
2023-05-22T09:19:06.389Z,25726.00
2023-05-22T09:20:06.343Z,20638.00
2023-05-22T09:21:11.353Z,16280.00
2023-05-22T09:22:06.338Z,14414.00
2023-05-22T09:23:06.322Z,15925.00
2023-05-22T09:24:06.284Z,15427.00
2023-05-22T09:25:06.333Z,12189.00
2023-05-22T09:26:06.267Z,26765.00
2023-05-22T09:27:06.241Z,21088.00
2023-05-22T09:28:06.240Z,31100.00
2023-05-22T09:29:06.211Z,36223.00
2023-05-22T09:30:06.255Z,22762.00
2023-05-22T09:31:06.301Z,18868.00
2023-05-22T09:32:06.175Z,28109.00
2023-05-22T09:33:06.243Z,14142.00
2023-05-22T09:34:06.202Z,16702.00
2023-05-22T09:35:06.210Z,17503.00
2023-05-22T09:36:06.151Z,18066.00
2023-05-22T09:37:06.124Z,13802.00
2023-05-22T09:38:06.143Z,28712.00
2023-05-22T09:39:06.125Z,15194.00
2023-05-22T09:40:06.108Z,36657.00
2023-05-22T09:41:06.105Z,36909.00
2023-05-22T09:42:06.100Z,36227.00
2023-05-22T09:43:06.088Z,32842.00
2023-05-22T09:44:06.059Z,27905.00
2023-05-22T09:45:06.109Z,29422.00
2023-05-22T09:46:06.200Z,25690.00
2023-05-22T09:47:06.043Z,19556.00
2023-05-22T09:48:06.119Z,25188.00
2023-05-22T09:49:06.038Z,28059.00
2023-05-22T09:50:06.097Z,25505.00
2023-05-22T09:51:05.993Z,27245.00
2023-05-22T09:52:06.023Z,24622.00
2023-05-22T09:53:06.014Z,27897.00
2023-05-22T09:54:06.011Z,22943.00
2023-05-22T09:55:06.034Z,22783.00
2023-05-22T09:56:05.973Z,18909.00
2023-05-22T09:57:05.962Z,13988.00
2023-05-22T09:58:05.976Z,17831.00
2023-05-22T09:59:05.937Z,17520.00
2023-05-22T10:00:05.977Z,11367.00
2023-05-22T10:01:05.957Z,15454.00
2023-05-22T10:02:05.983Z,18111.00
2023-05-22T10:03:05.969Z,22956.00
2023-05-22T10:04:05.965Z,21291.00
2023-05-22T10:05:05.866Z,23090.00
2023-05-22T10:06:05.892Z,25327.00
2023-05-22T10:07:05.839Z,31952.00
2023-05-22T10:08:05.894Z,29388.00
2023-05-22T10:09:05.852Z,29454.00
2023-05-22T10:10:05.870Z,34689.00
2023-05-22T10:11:05.832Z,71119.00
2023-05-22T10:12:05.823Z,35738.00
2023-05-22T10:13:05.805Z,34381.00
2023-05-22T10:14:05.936Z,71834.00
2023-05-22T10:15:05.788Z,39948.00
2023-05-22T10:16:08.411Z,36947.00
2023-05-22T10:17:05.827Z,35856.00
2023-05-22T10:18:05.833Z,32704.00
2023-05-22T10:19:05.799Z,33792.00
2023-05-22T10:20:05.795Z,39358.00
2023-05-22T10:21:05.728Z,34815.00
2023-05-22T10:22:05.717Z,29356.00
2023-05-22T10:23:05.720Z,28609.00
2023-05-22T10:24:05.714Z,29072.00
2023-05-22T10:25:06.119Z,27512.00
2023-05-22T10:26:05.697Z,31606.00
2023-05-22T10:27:05.784Z,29787.00
2023-05-22T10:28:05.792Z,25995.00
2023-05-22T10:29:05.674Z,30941.00
2023-05-22T10:30:05.666Z,29987.00
2023-05-22T10:31:05.623Z,30161.00
2023-05-22T10:32:05.658Z,25862.00
2023-05-22T10:33:05.706Z,21806.00
2023-05-22T10:34:05.807Z,12716.00
2023-05-22T10:35:05.628Z,25789.00
2023-05-22T10:36:05.637Z,26636.00
2023-05-22T10:37:16.669Z,21130.00
2023-05-22T10:38:05.615Z,20458.00
2023-05-22T10:39:05.572Z,19226.00
2023-05-22T10:40:05.577Z,19088.00
2023-05-22T10:41:05.567Z,21994.00
2023-05-22T10:42:05.549Z,21801.00
2023-05-22T10:43:05.512Z,18025.00
2023-05-22T10:44:05.499Z,15232.00
2023-05-22T10:45:05.574Z,12972.00
2023-05-22T10:46:05.649Z,11606.00
2023-05-22T10:47:05.695Z,10845.00
2023-05-22T10:48:05.536Z,10546.00
2023-05-22T10:49:05.512Z,9838.00
2023-05-22T10:50:05.479Z,9260.00
2023-05-22T10:51:05.447Z,8876.00
2023-05-22T10:52:05.492Z,8666.00
2023-05-22T10:53:05.432Z,8550.00
2023-05-22T10:54:05.533Z,8330.00
2023-05-22T10:55:05.391Z,8021.00
2023-05-22T10:56:05.407Z,7770.00
2023-05-22T10:57:05.494Z,7670.00
2023-05-22T10:58:05.474Z,7837.00
2023-05-22T10:59:05.574Z,7654.00
2023-05-22T11:00:05.527Z,7712.00
2023-05-22T11:01:05.379Z,7897.00
2023-05-22T11:02:05.493Z,7981.00
2023-05-22T11:03:17.276Z,7935.00
2023-05-22T11:04:05.384Z,7873.00
2023-05-22T11:05:05.388Z,7797.00
2023-05-22T11:06:05.297Z,7692.00
2023-05-22T11:07:05.537Z,7588.00
2023-05-22T11:08:05.331Z,7515.00
2023-05-22T11:09:05.307Z,7443.00
2023-05-22T11:10:05.339Z,7397.00
2023-05-22T11:11:05.393Z,7385.00
2023-05-22T11:12:05.391Z,7370.00
2023-05-22T11:13:05.396Z,7328.00
2023-05-22T11:14:05.313Z,7269.00
2023-05-22T11:15:05.289Z,7183.00
2023-05-22T11:16:05.210Z,7155.00
2023-05-22T11:17:05.228Z,7196.00
2023-05-22T11:18:05.470Z,7229.00
2023-05-22T11:19:21.288Z,7187.00
2023-05-22T11:20:05.766Z,7141.00
2023-05-22T11:21:05.163Z,7039.00
2023-05-22T11:22:05.220Z,6937.00
2023-05-22T11:23:05.238Z,6858.00
2023-05-22T11:24:05.209Z,6755.00
2023-05-22T11:25:05.151Z,6911.00
2023-05-22T11:26:05.086Z,7028.00
2023-05-22T11:27:05.093Z,7006.00
2023-05-22T11:28:05.114Z,6911.00
2023-05-22T11:29:05.115Z,6803.00
2023-05-22T11:30:05.045Z,6835.00
2023-05-22T11:31:05.107Z,6811.00
2023-05-22T11:32:05.047Z,6747.00
2023-05-22T11:33:05.065Z,6649.00
2023-05-22T11:34:05.120Z,6527.00
2023-05-22T11:35:05.091Z,6400.00
2023-05-22T11:36:05.082Z,6332.00
2023-05-22T11:37:05.022Z,6332.00
2023-05-22T11:38:05.106Z,6334.00
2023-05-22T11:39:05.186Z,6304.00
2023-05-22T11:40:05.196Z,6250.00
2023-05-22T11:41:05.202Z,6191.00
2023-05-22T11:42:05.140Z,6145.00
2023-05-22T11:43:04.957Z,6070.00
2023-05-22T11:44:04.984Z,5969.00
2023-05-22T11:45:04.949Z,5866.00
2023-05-22T11:46:04.942Z,5786.00
2023-05-22T11:47:04.964Z,5686.00
2023-05-22T11:48:04.897Z,5605.00
2023-05-22T11:49:04.874Z,5582.00
2023-05-22T11:50:04.902Z,5615.00
2023-05-22T11:51:04.868Z,5615.00
2023-05-22T11:52:04.900Z,5592.00
2023-05-22T11:53:04.843Z,5565.00
2023-05-22T11:54:04.850Z,5532.00
2023-05-22T11:55:04.844Z,5505.00
2023-05-22T11:56:04.812Z,5468.00
2023-05-22T11:57:04.876Z,5442.00
2023-05-22T11:58:04.842Z,5413.00
2023-05-22T11:59:04.770Z,5369.00
2023-05-22T12:00:04.865Z,5305.00
2023-05-22T12:01:04.778Z,5248.00
2023-05-22T12:02:04.788Z,5211.00
2023-05-22T12:03:04.820Z,5185.00
2023-05-22T12:04:04.900Z,5152.00
2023-05-22T12:05:04.713Z,5113.00
2023-05-22T12:06:04.750Z,5086.00
2023-05-22T12:07:04.828Z,5061.00
2023-05-22T12:08:04.918Z,5009.00
2023-05-22T12:09:04.688Z,4925.00
2023-05-22T12:10:04.678Z,4824.00
2023-05-22T12:11:04.625Z,4755.00
2023-05-22T12:12:04.834Z,4739.00
2023-05-22T12:13:04.596Z,4721.00
2023-05-22T12:14:04.640Z,4702.00
2023-05-22T12:15:04.639Z,4657.00
2023-05-22T12:16:04.678Z,4815.00
2023-05-22T12:17:04.652Z,4798.00
2023-05-22T12:18:04.855Z,4548.00
2023-05-22T12:19:04.672Z,4288.00
2023-05-22T12:20:04.576Z,4163.00
2023-05-22T12:21:04.599Z,4191.00
2023-05-22T12:22:04.544Z,4339.00